createdAt,value
2022-08-23T00:05:09.290Z,21.43
2022-08-23T00:10:14.744Z,21.25
2022-08-23T00:15:20.258Z,21.30
2022-08-23T00:20:21.995Z,21.32
2022-08-23T00:25:23.805Z,21.26
2022-08-23T00:30:25.723Z,21.13
2022-08-23T00:35:27.937Z,21.13
2022-08-23T00:40:29.915Z,21.17
2022-08-23T00:46:09.358Z,21.14
2022-08-23T00:51:52.329Z,21.14
2022-08-23T00:56:57.745Z,21.12
2022-08-23T01:02:01.077Z,21.06
2022-08-23T01:07:08.794Z,21.07
2022-08-23T01:12:32.662Z,21.03
2022-08-23T01:17:47.891Z,20.90
2022-08-23T01:23:22.634Z,20.97
2022-08-23T01:28:27.053Z,20.85
2022-08-23T01:33:29.135Z,20.76
2022-08-23T01:38:32.899Z,20.69
2022-08-23T01:43:35.777Z,20.61
2022-08-23T01:48:39.588Z,20.52
2022-08-23T01:53:41.538Z,20.47
2022-08-23T01:58:43.166Z,20.40
2022-08-23T02:03:46.550Z,20.26
2022-08-23T02:09:05.805Z,20.28
2022-08-23T02:14:21.339Z,20.25
2022-08-23T02:19:36.465Z,20.38
2022-08-23T02:24:45.527Z,20.31
2022-08-23T02:29:47.715Z,20.36
2022-08-23T02:34:51.155Z,20.40
2022-08-23T02:40:06.676Z,20.40
2022-08-23T02:45:09.477Z,20.43
2022-08-23T02:50:17.584Z,20.44
2022-08-23T02:55:20.271Z,20.40
2022-08-23T03:00:48.155Z,20.40
2022-08-23T03:05:56.224Z,20.39
2022-08-23T03:11:21.824Z,20.34
2022-08-23T03:16:31.427Z,20.31
2022-08-23T03:21:33.583Z,20.32
2022-08-23T03:26:35.637Z,20.33
2022-08-23T03:31:37.778Z,20.30
2022-08-23T03:36:44.691Z,20.30
2022-08-23T03:41:46.845Z,20.36
2022-08-23T03:46:48.550Z,20.36
2022-08-23T03:51:50.340Z,20.40
2022-08-23T03:57:00.564Z,20.40
2022-08-23T04:02:05.276Z,20.39
2022-08-23T04:07:07.348Z,20.41
2022-08-23T04:12:11.962Z,20.38
2022-08-23T04:17:20.985Z,20.35
2022-08-23T04:22:24.472Z,20.37
2022-08-23T04:27:26.408Z,20.42
2022-08-23T04:32:28.706Z,20.36
2022-08-23T04:37:35.339Z,20.32
2022-08-23T04:42:37.746Z,20.32
2022-08-23T04:47:41.447Z,20.30
2022-08-23T04:52:45.140Z,20.28
2022-08-23T04:57:46.928Z,20.25
2022-08-23T05:02:53.245Z,20.22
2022-08-23T05:07:55.620Z,20.23
2022-08-23T05:12:57.971Z,20.27
2022-08-23T05:17:59.860Z,20.15
2022-08-23T05:23:02.357Z,20.18
2022-08-23T05:28:09.173Z,20.16
2022-08-23T05:33:13.535Z,20.10
2022-08-23T05:38:18.961Z,20.16
2022-08-23T05:43:23.400Z,20.17
2022-08-23T05:48:26.207Z,20.16
2022-08-23T05:53:33.535Z,20.23
2022-08-23T05:58:35.787Z,20.28
2022-08-23T06:03:37.976Z,20.27
2022-08-23T06:08:40.267Z,20.24
2022-08-23T06:13:48.743Z,20.19
2022-08-23T06:18:52.031Z,20.22
2022-08-23T06:24:31.972Z,20.28
2022-08-23T06:29:41.449Z,20.27
2022-08-23T06:35:37.830Z,20.32
2022-08-23T06:40:45.012Z,20.30
2022-08-23T06:46:18.158Z,20.39
2022-08-23T06:51:26.619Z,20.48
2022-08-23T06:56:31.416Z,20.62
2022-08-23T07:02:06.016Z,20.78
2022-08-23T07:07:44.441Z,20.88
2022-08-23T07:12:50.203Z,21.00
2022-08-23T07:17:56.326Z,21.15
2022-08-23T07:22:59.125Z,21.16
2022-08-23T07:28:01.891Z,21.31
2022-08-23T07:33:07.275Z,21.36
2022-08-23T07:38:13.015Z,21.45
2022-08-23T07:43:14.849Z,21.75
2022-08-23T07:48:31.819Z,21.94
2022-08-23T07:53:50.299Z,22.15
2022-08-23T07:58:56.636Z,22.33
2022-08-23T08:04:10.923Z,22.50
2022-08-23T08:09:15.437Z,22.64
2022-08-23T08:14:17.739Z,22.91
2022-08-23T08:19:29.001Z,23.05
2022-08-23T08:24:49.339Z,23.21
2022-08-23T08:29:55.339Z,23.30
2022-08-23T08:34:57.020Z,23.43
2022-08-23T08:40:00.502Z,23.50
2022-08-23T08:45:24.304Z,23.54
2022-08-23T08:50:43.337Z,23.21
2022-08-23T08:55:49.584Z,23.23
2022-08-23T09:00:55.607Z,23.32
2022-08-23T09:06:15.630Z,23.83
2022-08-23T09:11:50.479Z,24.19
2022-08-23T09:16:57.744Z,23.90
2022-08-23T09:22:05.878Z,23.85
2022-08-23T09:27:09.935Z,23.71
2022-08-23T09:32:36.182Z,23.43
2022-08-23T09:37:59.474Z,23.53
2022-08-23T09:43:14.317Z,23.69
2022-08-23T09:48:33.016Z,23.78
2022-08-23T09:53:35.322Z,23.97
2022-08-23T09:58:47.111Z,23.86
2022-08-23T10:04:22.921Z,23.99
2022-08-23T10:09:31.570Z,24.09
2022-08-23T10:14:34.505Z,24.24
2022-08-23T10:19:58.816Z,24.24
2022-08-23T10:25:14.707Z,24.34
2022-08-23T10:30:21.701Z,24.46
2022-08-23T10:35:52.589Z,24.75
2022-08-23T10:40:57.541Z,24.85
2022-08-23T10:46:03.545Z,25.02
2022-08-23T10:51:23.185Z,25.47
2022-08-23T10:56:36.366Z,25.48
2022-08-23T11:01:53.647Z,25.74
2022-08-23T11:07:01.602Z,25.80
2022-08-23T11:12:30.731Z,25.50
2022-08-23T11:17:50.859Z,25.21
2022-08-23T11:23:07.691Z,25.21
2022-08-23T11:28:25.771Z,25.79
2022-08-23T11:33:52.423Z,25.49
2022-08-23T11:38:57.541Z,25.29
2022-08-23T11:44:02.240Z,25.21
2022-08-23T11:49:29.015Z,25.25
2022-08-23T11:54:59.722Z,25.77
2022-08-23T12:00:19.151Z,26.04
2022-08-23T12:05:33.936Z,26.37
2022-08-23T12:10:41.431Z,26.30
2022-08-23T12:16:07.663Z,26.47
2022-08-23T12:21:24.545Z,26.82
2022-08-23T12:27:14.550Z,26.84
2022-08-23T12:32:36.161Z,26.85
2022-08-23T12:37:57.203Z,26.96
2022-08-23T12:43:11.871Z,26.86
2022-08-23T12:48:24.385Z,26.89
2022-08-23T12:53:42.639Z,27.06
2022-08-23T12:58:52.510Z,27.16
2022-08-23T13:04:01.029Z,27.07
2022-08-23T13:09:09.343Z,27.35
2022-08-23T13:14:31.206Z,27.01
2022-08-23T13:19:33.791Z,27.32
2022-08-23T13:24:42.787Z,27.35
2022-08-23T13:29:52.241Z,27.21
2022-08-23T13:34:54.497Z,27.56
2022-08-23T13:40:00.440Z,27.44
2022-08-23T13:45:30.910Z,27.76
2022-08-23T13:50:34.776Z,27.73
2022-08-23T13:55:59.045Z,27.64
2022-08-23T14:01:03.967Z,27.49
2022-08-23T14:06:05.865Z,27.50
2022-08-23T14:11:08.400Z,27.41
2022-08-23T14:21:38.604Z,27.30
2022-08-23T14:26:50.189Z,27.23
2022-08-23T14:31:54.833Z,27.45
2022-08-23T14:42:22.352Z,27.46
2022-08-23T14:47:24.608Z,27.35
2022-08-23T14:52:26.544Z,27.20
2022-08-23T14:57:28.992Z,27.07
2022-08-23T15:02:30.730Z,27.22
2022-08-23T15:07:32.448Z,27.09
2022-08-23T15:17:59.074Z,26.84
2022-08-23T15:23:00.990Z,26.77
2022-08-23T15:28:06.038Z,26.76
2022-08-23T15:33:10.829Z,26.71
2022-08-23T15:38:16.143Z,26.75
2022-08-23T15:43:19.095Z,26.53
2022-08-23T15:48:30.136Z,26.49
2022-08-23T15:53:32.191Z,26.45
2022-08-23T15:58:34.022Z,26.44
2022-08-23T16:03:38.218Z,26.63
2022-08-23T16:08:43.021Z,26.51
2022-08-23T16:13:46.823Z,26.35
2022-08-23T16:18:50.329Z,26.31
2022-08-23T16:23:54.799Z,26.37
2022-08-23T16:28:58.171Z,26.28
2022-08-23T16:34:03.840Z,26.23
2022-08-23T16:39:06.048Z,26.18
2022-08-23T16:44:08.359Z,26.04
2022-08-23T16:49:15.378Z,26.04
2022-08-23T16:54:19.159Z,25.90
2022-08-23T16:59:21.116Z,25.80
2022-08-23T17:04:30.340Z,25.83
2022-08-23T17:09:32.400Z,25.70
2022-08-23T17:14:33.987Z,25.57
2022-08-23T17:19:36.419Z,25.45
2022-08-23T17:24:38.167Z,25.16
2022-08-23T17:29:40.876Z,24.93
2022-08-23T17:34:43.156Z,25.06
2022-08-23T17:39:45.600Z,24.77
2022-08-23T17:44:47.258Z,24.74
2022-08-23T17:49:49.561Z,24.61
2022-08-23T17:54:52.634Z,24.57
2022-08-23T17:59:54.916Z,24.34
2022-08-23T18:04:57.298Z,24.32
2022-08-23T18:09:59.038Z,24.16
2022-08-23T18:15:04.743Z,23.99
2022-08-23T18:20:09.849Z,24.06
2022-08-23T18:25:13.426Z,23.96
2022-08-23T18:30:15.804Z,23.81
2022-08-23T18:35:17.920Z,23.73
2022-08-23T18:40:19.835Z,23.58
2022-08-23T18:45:22.359Z,23.52
2022-08-23T18:50:24.149Z,23.59
2022-08-23T18:55:25.920Z,23.64
2022-08-23T19:00:27.534Z,23.58
2022-08-23T19:05:29.479Z,23.50
2022-08-23T19:10:44.392Z,23.43
2022-08-23T19:15:46.059Z,23.42
2022-08-23T19:20:47.802Z,23.34
2022-08-23T19:25:49.506Z,23.24
2022-08-23T19:30:51.819Z,23.14
2022-08-23T19:35:53.587Z,23.16
2022-08-23T19:41:00.438Z,23.14
2022-08-23T19:46:08.328Z,23.12
2022-08-23T19:51:13.196Z,23.12
2022-08-23T19:56:14.854Z,22.86
2022-08-23T20:01:16.994Z,22.84
2022-08-23T20:06:18.920Z,22.88
2022-08-23T20:11:21.242Z,22.85
2022-08-23T20:16:23.765Z,22.75
2022-08-23T20:21:26.231Z,22.73
2022-08-23T20:26:40.799Z,22.60
2022-08-23T20:31:59.667Z,22.54
2022-08-23T20:37:01.745Z,22.58
2022-08-23T20:42:03.638Z,22.51
2022-08-23T20:47:10.155Z,22.45
2022-08-23T20:52:19.061Z,22.40
2022-08-23T20:57:23.669Z,22.26
2022-08-23T21:02:30.020Z,22.29
2022-08-23T21:13:00.081Z,22.32
2022-08-23T21:18:02.359Z,22.27
2022-08-23T21:23:04.153Z,22.31
2022-08-23T21:28:05.996Z,22.27
2022-08-23T21:33:07.914Z,22.25
2022-08-23T21:38:09.731Z,22.19
2022-08-23T21:43:11.380Z,22.13
2022-08-23T21:48:13.070Z,22.13
2022-08-23T21:53:15.335Z,22.09
2022-08-23T21:58:17.336Z,22.04
2022-08-23T22:03:19.082Z,22.04
2022-08-23T22:08:21.086Z,22.01
2022-08-23T22:13:23.154Z,22.04
2022-08-23T22:18:24.867Z,21.95
2022-08-23T22:23:28.394Z,21.92
2022-08-23T22:28:32.399Z,21.89
2022-08-23T22:33:37.483Z,21.82
2022-08-23T22:38:39.713Z,21.85
2022-08-23T22:43:41.386Z,21.86
2022-08-23T22:48:43.279Z,21.87
2022-08-23T22:53:48.859Z,21.86
2022-08-23T22:58:52.709Z,21.82
2022-08-23T23:03:55.842Z,21.70
2022-08-23T23:08:57.788Z,21.64
2022-08-23T23:13:59.643Z,21.55
2022-08-23T23:19:19.965Z,21.57
2022-08-23T23:24:26.129Z,21.51
2022-08-23T23:29:28.590Z,21.40
2022-08-23T23:34:30.347Z,21.36
2022-08-23T23:39:32.120Z,21.36
2022-08-23T23:44:33.867Z,21.43
2022-08-23T23:49:35.531Z,21.48
2022-08-23T23:54:38.465Z,21.36
2022-08-23T23:59:41.284Z,21.41
